sensor_id;sensor_type;location;lat;lon;timestamp;temperature;humidity
6054;DHT22;3055;50.886;14.814;2023-08-17T00:01:17;20.30;99.90
6054;DHT22;3055;50.886;14.814;2023-08-17T00:03:44;20.30;99.90
6054;DHT22;3055;50.886;14.814;2023-08-17T00:06:11;20.30;99.90
6054;DHT22;3055;50.886;14.814;2023-08-17T00:08:38;20.30;99.90
6054;DHT22;3055;50.886;14.814;2023-08-17T00:11:05;20.30;99.90
6054;DHT22;3055;50.886;14.814;2023-08-17T00:13:32;20.40;99.90
6054;DHT22;3055;50.886;14.814;2023-08-17T00:16:01;20.30;99.90
6054;DHT22;3055;50.886;14.814;2023-08-17T00:18:28;20.30;99.90
6054;DHT22;3055;50.886;14.814;2023-08-17T00:20:55;20.20;99.90
6054;DHT22;3055;50.886;14.814;2023-08-17T00:23:22;20.30;99.90
6054;DHT22;3055;50.886;14.814;2023-08-17T00:25:49;20.10;99.90
6054;DHT22;3055;50.886;14.814;2023-08-17T00:28:16;20.20;99.90
6054;DHT22;3055;50.886;14.814;2023-08-17T00:30:43;20.20;99.90
6054;DHT22;3055;50.886;14.814;2023-08-17T00:33:12;20.10;99.90
6054;DHT22;3055;50.886;14.814;2023-08-17T00:35:40;20.20;99.90
6054;DHT22;3055;50.886;14.814;2023-08-17T00:38:07;20.20;99.90
6054;DHT22;3055;50.886;14.814;2023-08-17T00:40:34;20.30;99.90
6054;DHT22;3055;50.886;14.814;2023-08-17T00:43:01;20.30;99.90
6054;DHT22;3055;50.886;14.814;2023-08-17T00:45:28;20.40;99.90
6054;DHT22;3055;50.886;14.814;2023-08-17T00:47:57;20.30;99.90
6054;DHT22;3055;50.886;14.814;2023-08-17T00:50:25;20.40;99.90
6054;DHT22;3055;50.886;14.814;2023-08-17T00:52:55;20.30;99.90
6054;DHT22;3055;50.886;14.814;2023-08-17T00:55:23;20.30;99.90
6054;DHT22;3055;50.886;14.814;2023-08-17T00:57:51;20.30;99.90
6054;DHT22;3055;50.886;14.814;2023-08-17T01:00:19;20.30;99.90
6054;DHT22;3055;50.886;14.814;2023-08-17T01:02:46;20.20;99.90
6054;DHT22;3055;50.886;14.814;2023-08-17T01:05:14;20.20;99.90
6054;DHT22;3055;50.886;14.814;2023-08-17T01:07:42;20.10;99.90
6054;DHT22;3055;50.886;14.814;2023-08-17T01:10:10;20.00;99.90
6054;DHT22;3055;50.886;14.814;2023-08-17T01:12:42;20.00;99.90
6054;DHT22;3055;50.886;14.814;2023-08-17T01:15:13;20.00;99.90
6054;DHT22;3055;50.886;14.814;2023-08-17T01:17:44;19.90;99.90
6054;DHT22;3055;50.886;14.814;2023-08-17T01:20:14;19.90;99.90
6054;DHT22;3055;50.886;14.814;2023-08-17T01:22:46;19.90;99.90
6054;DHT22;3055;50.886;14.814;2023-08-17T01:25:16;19.90;99.90
6054;DHT22;3055;50.886;14.814;2023-08-17T01:27:45;19.90;99.90
6054;DHT22;3055;50.886;14.814;2023-08-17T01:30:14;20.00;99.90
6054;DHT22;3055;50.886;14.814;2023-08-17T01:32:47;20.00;99.90
6054;DHT22;3055;50.886;14.814;2023-08-17T01:35:21;20.00;99.90
6054;DHT22;3055;50.886;14.814;2023-08-17T01:37:50;20.00;99.90
6054;DHT22;3055;50.886;14.814;2023-08-17T01:40:21;20.10;99.90
6054;DHT22;3055;50.886;14.814;2023-08-17T01:42:50;20.10;99.90
6054;DHT22;3055;50.886;14.814;2023-08-17T01:45:17;20.20;99.90
6054;DHT22;3055;50.886;14.814;2023-08-17T01:47:45;20.20;99.90
6054;DHT22;3055;50.886;14.814;2023-08-17T01:50:12;20.20;99.90
6054;DHT22;3055;50.886;14.814;2023-08-17T01:52:39;20.10;99.90
6054;DHT22;3055;50.886;14.814;2023-08-17T01:55:06;20.00;99.90
6054;DHT22;3055;50.886;14.814;2023-08-17T01:57:35;20.00;99.90
6054;DHT22;3055;50.886;14.814;2023-08-17T02:00:03;19.90;99.90
6054;DHT22;3055;50.886;14.814;2023-08-17T02:02:31;19.80;99.90
6054;DHT22;3055;50.886;14.814;2023-08-17T02:04:58;19.80;99.90
6054;DHT22;3055;50.886;14.814;2023-08-17T02:07:25;19.70;99.90
6054;DHT22;3055;50.886;14.814;2023-08-17T02:09:52;19.70;99.90
6054;DHT22;3055;50.886;14.814;2023-08-17T02:12:19;19.60;99.90
6054;DHT22;3055;50.886;14.814;2023-08-17T02:14:47;19.70;99.90
6054;DHT22;3055;50.886;14.814;2023-08-17T02:17:14;19.60;99.90
6054;DHT22;3055;50.886;14.814;2023-08-17T02:19:42;19.60;99.90
6054;DHT22;3055;50.886;14.814;2023-08-17T02:22:10;19.60;99.90
6054;DHT22;3055;50.886;14.814;2023-08-17T02:24:37;19.60;99.90
6054;DHT22;3055;50.886;14.814;2023-08-17T02:27:04;19.70;99.90
6054;DHT22;3055;50.886;14.814;2023-08-17T02:29:31;19.80;99.90
6054;DHT22;3055;50.886;14.814;2023-08-17T02:31:59;19.90;99.90
6054;DHT22;3055;50.886;14.814;2023-08-17T02:34:26;20.00;99.90
6054;DHT22;3055;50.886;14.814;2023-08-17T02:36:53;20.00;99.90
6054;DHT22;3055;50.886;14.814;2023-08-17T02:39:20;19.90;99.90
6054;DHT22;3055;50.886;14.814;2023-08-17T02:41:47;19.90;99.90
6054;DHT22;3055;50.886;14.814;2023-08-17T02:44:15;19.80;99.90
6054;DHT22;3055;50.886;14.814;2023-08-17T02:46:42;19.70;99.90
6054;DHT22;3055;50.886;14.814;2023-08-17T02:49:11;19.70;99.90
6054;DHT22;3055;50.886;14.814;2023-08-17T02:51:38;19.60;99.90
6054;DHT22;3055;50.886;14.814;2023-08-17T02:54:05;19.80;99.90
6054;DHT22;3055;50.886;14.814;2023-08-17T02:56:33;19.90;99.90
6054;DHT22;3055;50.886;14.814;2023-08-17T02:59:00;19.90;99.90
6054;DHT22;3055;50.886;14.814;2023-08-17T03:01:27;19.80;99.90
6054;DHT22;3055;50.886;14.814;2023-08-17T03:03:54;19.70;99.90
6054;DHT22;3055;50.886;14.814;2023-08-17T03:06:23;19.70;99.90
6054;DHT22;3055;50.886;14.814;2023-08-17T03:08:50;19.60;99.90
6054;DHT22;3055;50.886;14.814;2023-08-17T03:11:18;19.60;99.90
6054;DHT22;3055;50.886;14.814;2023-08-17T03:13:46;19.50;99.90
6054;DHT22;3055;50.886;14.814;2023-08-17T03:16:14;19.50;99.90
6054;DHT22;3055;50.886;14.814;2023-08-17T03:18:41;19.50;99.90
6054;DHT22;3055;50.886;14.814;2023-08-17T03:21:08;19.50;99.90
6054;DHT22;3055;50.886;14.814;2023-08-17T03:23:37;19.60;99.90
6054;DHT22;3055;50.886;14.814;2023-08-17T03:26:04;19.70;99.90
6054;DHT22;3055;50.886;14.814;2023-08-17T03:28:31;19.70;99.90
6054;DHT22;3055;50.886;14.814;2023-08-17T03:30:58;19.60;99.90
6054;DHT22;3055;50.886;14.814;2023-08-17T03:33:25;19.70;99.90
6054;DHT22;3055;50.886;14.814;2023-08-17T03:35:52;19.60;99.90
6054;DHT22;3055;50.886;14.814;2023-08-17T03:38:19;19.40;99.90
6054;DHT22;3055;50.886;14.814;2023-08-17T03:40:47;19.30;99.90
6054;DHT22;3055;50.886;14.814;2023-08-17T03:43:14;19.20;99.90
6054;DHT22;3055;50.886;14.814;2023-08-17T03:45:42;19.10;99.90
6054;DHT22;3055;50.886;14.814;2023-08-17T03:48:10;19.10;99.90
6054;DHT22;3055;50.886;14.814;2023-08-17T03:50:37;19.10;99.90
6054;DHT22;3055;50.886;14.814;2023-08-17T03:53:04;19.00;99.90
6054;DHT22;3055;50.886;14.814;2023-08-17T03:55:31;19.00;99.90
6054;DHT22;3055;50.886;14.814;2023-08-17T03:58:00;18.90;99.90
6054;DHT22;3055;50.886;14.814;2023-08-17T04:00:27;18.90;99.90
6054;DHT22;3055;50.886;14.814;2023-08-17T04:02:54;18.90;99.90
6054;DHT22;3055;50.886;14.814;2023-08-17T04:05:21;18.90;99.90
6054;DHT22;3055;50.886;14.814;2023-08-17T04:07:48;18.80;99.90
6054;DHT22;3055;50.886;14.814;2023-08-17T04:10:15;18.80;99.90
6054;DHT22;3055;50.886;14.814;2023-08-17T04:12:42;18.90;99.90
6054;DHT22;3055;50.886;14.814;2023-08-17T04:15:11;19.00;99.90
6054;DHT22;3055;50.886;14.814;2023-08-17T04:17:38;18.90;99.90
6054;DHT22;3055;50.886;14.814;2023-08-17T04:20:05;18.90;99.90
6054;DHT22;3055;50.886;14.814;2023-08-17T04:22:33;19.00;99.90
6054;DHT22;3055;50.886;14.814;2023-08-17T04:25:00;19.00;99.90
6054;DHT22;3055;50.886;14.814;2023-08-17T04:27:27;19.00;99.90
6054;DHT22;3055;50.886;14.814;2023-08-17T04:29:54;19.10;99.90
6054;DHT22;3055;50.886;14.814;2023-08-17T04:32:22;19.10;99.90
6054;DHT22;3055;50.886;14.814;2023-08-17T04:34:49;19.10;99.90
6054;DHT22;3055;50.886;14.814;2023-08-17T04:37:16;19.20;99.90
6054;DHT22;3055;50.886;14.814;2023-08-17T04:39:43;19.20;99.90
6054;DHT22;3055;50.886;14.814;2023-08-17T04:42:10;19.30;99.90
6054;DHT22;3055;50.886;14.814;2023-08-17T04:44:37;19.40;99.90
6054;DHT22;3055;50.886;14.814;2023-08-17T04:47:04;19.50;99.90
6054;DHT22;3055;50.886;14.814;2023-08-17T04:49:33;19.60;99.90
6054;DHT22;3055;50.886;14.814;2023-08-17T04:52:00;19.70;99.90
6054;DHT22;3055;50.886;14.814;2023-08-17T04:54:28;19.80;99.90
6054;DHT22;3055;50.886;14.814;2023-08-17T04:56:55;19.80;99.90
6054;DHT22;3055;50.886;14.814;2023-08-17T04:59:22;19.90;99.90
6054;DHT22;3055;50.886;14.814;2023-08-17T05:01:49;19.90;99.90
6054;DHT22;3055;50.886;14.814;2023-08-17T05:04:16;20.00;99.90
6054;DHT22;3055;50.886;14.814;2023-08-17T05:06:45;20.10;99.90
6054;DHT22;3055;50.886;14.814;2023-08-17T05:09:12;20.20;99.90
6054;DHT22;3055;50.886;14.814;2023-08-17T05:11:39;20.20;99.90
6054;DHT22;3055;50.886;14.814;2023-08-17T05:14:06;20.20;99.90
6054;DHT22;3055;50.886;14.814;2023-08-17T05:16:33;20.30;99.90
6054;DHT22;3055;50.886;14.814;2023-08-17T05:19:00;20.40;99.90
6054;DHT22;3055;50.886;14.814;2023-08-17T05:21:27;20.40;99.90
6054;DHT22;3055;50.886;14.814;2023-08-17T05:23:56;20.40;99.90
6054;DHT22;3055;50.886;14.814;2023-08-17T05:26:23;20.40;99.90
6054;DHT22;3055;50.886;14.814;2023-08-17T05:28:50;20.50;99.90
6054;DHT22;3055;50.886;14.814;2023-08-17T05:31:17;20.50;99.90
6054;DHT22;3055;50.886;14.814;2023-08-17T05:33:44;20.60;99.90
6054;DHT22;3055;50.886;14.814;2023-08-17T05:36:12;20.60;99.90
6054;DHT22;3055;50.886;14.814;2023-08-17T05:38:40;20.60;99.90
6054;DHT22;3055;50.886;14.814;2023-08-17T05:41:08;20.70;99.90
6054;DHT22;3055;50.886;14.814;2023-08-17T05:43:35;20.70;99.90
6054;DHT22;3055;50.886;14.814;2023-08-17T05:46:02;20.70;99.90
6054;DHT22;3055;50.886;14.814;2023-08-17T05:48:29;20.80;99.90
6054;DHT22;3055;50.886;14.814;2023-08-17T05:50:56;20.70;99.90
6054;DHT22;3055;50.886;14.814;2023-08-17T05:53:24;20.70;99.90
6054;DHT22;3055;50.886;14.814;2023-08-17T05:55:51;20.70;99.90
6054;DHT22;3055;50.886;14.814;2023-08-17T05:58:19;20.60;99.90
6054;DHT22;3055;50.886;14.814;2023-08-17T06:00:46;20.60;99.90
6054;DHT22;3055;50.886;14.814;2023-08-17T06:03:13;20.60;99.90
6054;DHT22;3055;50.886;14.814;2023-08-17T06:05:41;20.60;99.90
6054;DHT22;3055;50.886;14.814;2023-08-17T06:08:08;20.60;99.90
6054;DHT22;3055;50.886;14.814;2023-08-17T06:10:35;20.70;99.90
6054;DHT22;3055;50.886;14.814;2023-08-17T06:13:02;20.80;99.90
6054;DHT22;3055;50.886;14.814;2023-08-17T06:15:31;20.90;99.90
6054;DHT22;3055;50.886;14.814;2023-08-17T06:17:58;21.00;99.90
6054;DHT22;3055;50.886;14.814;2023-08-17T06:20:25;21.10;99.90
6054;DHT22;3055;50.886;14.814;2023-08-17T06:22:52;21.20;99.90
6054;DHT22;3055;50.886;14.814;2023-08-17T06:25:19;21.40;99.90
6054;DHT22;3055;50.886;14.814;2023-08-17T06:27:49;21.50;99.90
6054;DHT22;3055;50.886;14.814;2023-08-17T06:30:16;21.60;99.90
6054;DHT22;3055;50.886;14.814;2023-08-17T06:32:45;21.80;99.90
6054;DHT22;3055;50.886;14.814;2023-08-17T06:35:12;21.90;99.90
6054;DHT22;3055;50.886;14.814;2023-08-17T06:37:39;21.80;99.90
6054;DHT22;3055;50.886;14.814;2023-08-17T06:40:07;21.80;99.90
6054;DHT22;3055;50.886;14.814;2023-08-17T06:42:35;22.00;99.90
6054;DHT22;3055;50.886;14.814;2023-08-17T06:45:03;22.10;99.90
6054;DHT22;3055;50.886;14.814;2023-08-17T06:47:30;22.20;99.90
6054;DHT22;3055;50.886;14.814;2023-08-17T06:49:59;22.10;99.90
6054;DHT22;3055;50.886;14.814;2023-08-17T06:52:26;22.30;99.90
6054;DHT22;3055;50.886;14.814;2023-08-17T06:54:53;22.50;99.90
6054;DHT22;3055;50.886;14.814;2023-08-17T06:57:20;22.60;99.90
6054;DHT22;3055;50.886;14.814;2023-08-17T06:59:48;22.90;99.90
6054;DHT22;3055;50.886;14.814;2023-08-17T07:02:15;22.90;99.90
6054;DHT22;3055;50.886;14.814;2023-08-17T07:04:42;23.10;99.90
6054;DHT22;3055;50.886;14.814;2023-08-17T07:07:11;23.30;99.90
6054;DHT22;3055;50.886;14.814;2023-08-17T07:09:39;23.30;99.90
6054;DHT22;3055;50.886;14.814;2023-08-17T07:12:07;23.50;99.90
6054;DHT22;3055;50.886;14.814;2023-08-17T07:14:34;23.60;83.40
6054;DHT22;3055;50.886;14.814;2023-08-17T07:17:01;23.40;67.40
6054;DHT22;3055;50.886;14.814;2023-08-17T07:19:28;23.30;98.30
6054;DHT22;3055;50.886;14.814;2023-08-17T07:21:55;23.40;77.90
6054;DHT22;3055;50.886;14.814;2023-08-17T07:24:24;23.40;53.50
6054;DHT22;3055;50.886;14.814;2023-08-17T07:26:51;23.60;82.10
6054;DHT22;3055;50.886;14.814;2023-08-17T07:29:19;23.80;81.80
6054;DHT22;3055;50.886;14.814;2023-08-17T07:31:46;24.20;50.80
6054;DHT22;3055;50.886;14.814;2023-08-17T07:34:13;24.30;1.00
6054;DHT22;3055;50.886;14.814;2023-08-17T07:36:41;24.40;1.00
6054;DHT22;3055;50.886;14.814;2023-08-17T07:39:08;24.20;99.90
6054;DHT22;3055;50.886;14.814;2023-08-17T07:41:36;24.00;1.00
6054;DHT22;3055;50.886;14.814;2023-08-17T07:44:04;24.00;99.90
6054;DHT22;3055;50.886;14.814;2023-08-17T07:46:31;24.00;1.00
6054;DHT22;3055;50.886;14.814;2023-08-17T07:48:58;24.10;99.90
6054;DHT22;3055;50.886;14.814;2023-08-17T07:51:25;24.10;99.90
6054;DHT22;3055;50.886;14.814;2023-08-17T07:53:55;24.30;1.00
6054;DHT22;3055;50.886;14.814;2023-08-17T07:56:22;24.40;99.90
6054;DHT22;3055;50.886;14.814;2023-08-17T07:58:51;24.50;99.90
6054;DHT22;3055;50.886;14.814;2023-08-17T08:01:18;24.60;99.90
6054;DHT22;3055;50.886;14.814;2023-08-17T08:03:45;24.60;99.90
6054;DHT22;3055;50.886;14.814;2023-08-17T08:06:12;24.80;99.90
6054;DHT22;3055;50.886;14.814;2023-08-17T08:08:39;25.10;1.00
6054;DHT22;3055;50.886;14.814;2023-08-17T08:11:07;25.20;1.00
6054;DHT22;3055;50.886;14.814;2023-08-17T08:13:34;25.20;1.00
6054;DHT22;3055;50.886;14.814;2023-08-17T08:16:02;25.40;1.00
6054;DHT22;3055;50.886;14.814;2023-08-17T08:18:29;25.40;1.00
6054;DHT22;3055;50.886;14.814;2023-08-17T08:20:57;25.50;1.00
6054;DHT22;3055;50.886;14.814;2023-08-17T08:23:24;25.60;1.00
6054;DHT22;3055;50.886;14.814;2023-08-17T08:25:52;25.90;1.00
6054;DHT22;3055;50.886;14.814;2023-08-17T08:28:19;26.10;1.00
6054;DHT22;3055;50.886;14.814;2023-08-17T08:30:46;26.10;99.90
6054;DHT22;3055;50.886;14.814;2023-08-17T08:33:14;26.30;1.00
6054;DHT22;3055;50.886;14.814;2023-08-17T08:35:41;26.30;99.90
6054;DHT22;3055;50.886;14.814;2023-08-17T08:38:08;26.30;99.90
6054;DHT22;3055;50.886;14.814;2023-08-17T08:40:37;26.30;99.90
6054;DHT22;3055;50.886;14.814;2023-08-17T08:43:05;26.20;99.90
6054;DHT22;3055;50.886;14.814;2023-08-17T08:45:32;26.30;99.90
6054;DHT22;3055;50.886;14.814;2023-08-17T08:51:28;26.70;99.90
6054;DHT22;3055;50.886;14.814;2023-08-17T08:54:00;26.60;99.90
6054;DHT22;3055;50.886;14.814;2023-08-17T08:56:32;26.80;99.90
6054;DHT22;3055;50.886;14.814;2023-08-17T08:59:01;27.00;99.90
6054;DHT22;3055;50.886;14.814;2023-08-17T09:01:30;27.30;99.90
6054;DHT22;3055;50.886;14.814;2023-08-17T09:03:58;27.50;99.90
6054;DHT22;3055;50.886;14.814;2023-08-17T09:06:27;27.80;99.90
6054;DHT22;3055;50.886;14.814;2023-08-17T09:08:57;27.90;99.90
6054;DHT22;3055;50.886;14.814;2023-08-17T09:11:24;27.60;99.90
6054;DHT22;3055;50.886;14.814;2023-08-17T09:13:52;27.70;99.90
6054;DHT22;3055;50.886;14.814;2023-08-17T09:16:19;27.90;99.90
6054;DHT22;3055;50.886;14.814;2023-08-17T09:18:47;28.10;99.90
6054;DHT22;3055;50.886;14.814;2023-08-17T09:21:20;28.20;99.90
6054;DHT22;3055;50.886;14.814;2023-08-17T09:23:52;28.10;99.90
6054;DHT22;3055;50.886;14.814;2023-08-17T09:26:20;28.20;99.90
6054;DHT22;3055;50.886;14.814;2023-08-17T09:28:49;28.20;99.90
6054;DHT22;3055;50.886;14.814;2023-08-17T09:31:17;28.10;99.90
6054;DHT22;3055;50.886;14.814;2023-08-17T09:33:49;27.90;99.90
6054;DHT22;3055;50.886;14.814;2023-08-17T09:36:20;27.90;99.90
6054;DHT22;3055;50.886;14.814;2023-08-17T09:38:48;28.00;99.90
6054;DHT22;3055;50.886;14.814;2023-08-17T09:41:18;28.30;99.90
6054;DHT22;3055;50.886;14.814;2023-08-17T09:43:45;28.70;99.90
6054;DHT22;3055;50.886;14.814;2023-08-17T09:46:12;28.80;99.90
6054;DHT22;3055;50.886;14.814;2023-08-17T09:48:39;29.00;99.90
6054;DHT22;3055;50.886;14.814;2023-08-17T09:51:09;29.10;79.50
6054;DHT22;3055;50.886;14.814;2023-08-17T09:53:36;28.90;74.70
6054;DHT22;3055;50.886;14.814;2023-08-17T09:56:05;29.00;92.10
6054;DHT22;3055;50.886;14.814;2023-08-17T09:58:38;28.90;73.20
6054;DHT22;3055;50.886;14.814;2023-08-17T10:01:05;29.00;47.30
6054;DHT22;3055;50.886;14.814;2023-08-17T10:03:33;29.00;43.40
6054;DHT22;3055;50.886;14.814;2023-08-17T10:06:04;29.00;57.10
6054;DHT22;3055;50.886;14.814;2023-08-17T10:08:35;29.00;39.20
6054;DHT22;3055;50.886;14.814;2023-08-17T10:11:04;29.00;37.00
6054;DHT22;3055;50.886;14.814;2023-08-17T10:13:39;29.00;41.70
6054;DHT22;3055;50.886;14.814;2023-08-17T10:16:15;29.00;19.80
6054;DHT22;3055;50.886;14.814;2023-08-17T10:18:54;28.80;16.80
6054;DHT22;3055;50.886;14.814;2023-08-17T10:21:27;28.70;17.80
6054;DHT22;3055;50.886;14.814;2023-08-17T10:23:55;28.50;21.60
6054;DHT22;3055;50.886;14.814;2023-08-17T10:26:23;28.50;39.00
6054;DHT22;3055;50.886;14.814;2023-08-17T10:28:53;28.70;32.40
6054;DHT22;3055;50.886;14.814;2023-08-17T10:31:25;28.80;18.70
6054;DHT22;3055;50.886;14.814;2023-08-17T10:33:54;28.80;1.80
6054;DHT22;3055;50.886;14.814;2023-08-17T10:36:23;28.60;7.90
6054;DHT22;3055;50.886;14.814;2023-08-17T10:39:17;28.60;1.00
6054;DHT22;3055;50.886;14.814;2023-08-17T10:41:47;28.60;1.00
6054;DHT22;3055;50.886;14.814;2023-08-17T10:44:18;28.70;1.00
6054;DHT22;3055;50.886;14.814;2023-08-17T10:46:45;28.80;1.00
6054;DHT22;3055;50.886;14.814;2023-08-17T10:49:25;28.70;1.00
6054;DHT22;3055;50.886;14.814;2023-08-17T10:52:03;28.80;1.00
6054;DHT22;3055;50.886;14.814;2023-08-17T10:54:36;28.80;1.00
6054;DHT22;3055;50.886;14.814;2023-08-17T10:57:24;28.90;1.00
6054;DHT22;3055;50.886;14.814;2023-08-17T11:00:15;29.10;1.00
6054;DHT22;3055;50.886;14.814;2023-08-17T11:02:43;29.00;1.00
6054;DHT22;3055;50.886;14.814;2023-08-17T11:05:10;29.00;1.00
6054;DHT22;3055;50.886;14.814;2023-08-17T11:07:40;29.00;1.00
6054;DHT22;3055;50.886;14.814;2023-08-17T11:10:12;28.90;1.00
6054;DHT22;3055;50.886;14.814;2023-08-17T11:12:41;28.80;1.00
6054;DHT22;3055;50.886;14.814;2023-08-17T11:15:09;29.00;1.00
6054;DHT22;3055;50.886;14.814;2023-08-17T11:17:37;29.20;1.00
6054;DHT22;3055;50.886;14.814;2023-08-17T11:20:05;29.40;1.00
6054;DHT22;3055;50.886;14.814;2023-08-17T11:22:34;29.70;1.00
6054;DHT22;3055;50.886;14.814;2023-08-17T11:25:01;29.70;1.00
6054;DHT22;3055;50.886;14.814;2023-08-17T11:27:30;29.70;1.00
6054;DHT22;3055;50.886;14.814;2023-08-17T11:29:57;29.80;1.00
6054;DHT22;3055;50.886;14.814;2023-08-17T11:32:24;29.80;1.00
6054;DHT22;3055;50.886;14.814;2023-08-17T11:34:53;30.10;1.00
6054;DHT22;3055;50.886;14.814;2023-08-17T11:37:21;30.40;1.00
6054;DHT22;3055;50.886;14.814;2023-08-17T11:39:49;30.50;1.00
6054;DHT22;3055;50.886;14.814;2023-08-17T11:42:16;30.70;1.00
6054;DHT22;3055;50.886;14.814;2023-08-17T11:44:43;31.00;1.00
6054;DHT22;3055;50.886;14.814;2023-08-17T11:47:11;31.20;1.00
6054;DHT22;3055;50.886;14.814;2023-08-17T11:49:38;31.20;1.00
6054;DHT22;3055;50.886;14.814;2023-08-17T11:52:09;31.30;1.00
6054;DHT22;3055;50.886;14.814;2023-08-17T11:54:40;31.50;1.00
6054;DHT22;3055;50.886;14.814;2023-08-17T11:57:07;31.40;1.00
6054;DHT22;3055;50.886;14.814;2023-08-17T11:59:34;31.50;1.00
6054;DHT22;3055;50.886;14.814;2023-08-17T12:02:01;31.60;1.00
6054;DHT22;3055;50.886;14.814;2023-08-17T12:04:28;31.50;1.00
6054;DHT22;3055;50.886;14.814;2023-08-17T12:06:55;31.60;1.00
6054;DHT22;3055;50.886;14.814;2023-08-17T12:09:24;31.40;1.00
6054;DHT22;3055;50.886;14.814;2023-08-17T12:11:58;31.60;1.00
6054;DHT22;3055;50.886;14.814;2023-08-17T12:14:27;31.80;1.00
6054;DHT22;3055;50.886;14.814;2023-08-17T12:16:55;31.80;1.00
6054;DHT22;3055;50.886;14.814;2023-08-17T12:19:22;31.70;1.00
6054;DHT22;3055;50.886;14.814;2023-08-17T12:21:51;31.90;1.00
6054;DHT22;3055;50.886;14.814;2023-08-17T12:24:18;31.80;1.00
6054;DHT22;3055;50.886;14.814;2023-08-17T12:26:47;32.10;1.00
6054;DHT22;3055;50.886;14.814;2023-08-17T12:29:14;32.60;1.00
6054;DHT22;3055;50.886;14.814;2023-08-17T12:31:41;32.80;1.00
6054;DHT22;3055;50.886;14.814;2023-08-17T12:34:08;32.70;1.00
6054;DHT22;3055;50.886;14.814;2023-08-17T12:36:36;32.40;1.00
6054;DHT22;3055;50.886;14.814;2023-08-17T12:39:04;32.20;1.00
6054;DHT22;3055;50.886;14.814;2023-08-17T12:41:31;32.10;1.00
6054;DHT22;3055;50.886;14.814;2023-08-17T12:44:00;32.00;1.00
6054;DHT22;3055;50.886;14.814;2023-08-17T12:46:27;32.20;1.00
6054;DHT22;3055;50.886;14.814;2023-08-17T12:48:58;32.00;1.00
6054;DHT22;3055;50.886;14.814;2023-08-17T12:51:25;32.10;1.00
6054;DHT22;3055;50.886;14.814;2023-08-17T12:53:52;32.20;1.00
6054;DHT22;3055;50.886;14.814;2023-08-17T12:56:19;32.10;1.00
6054;DHT22;3055;50.886;14.814;2023-08-17T12:58:46;32.10;1.00
6054;DHT22;3055;50.886;14.814;2023-08-17T13:01:15;31.90;1.00
6054;DHT22;3055;50.886;14.814;2023-08-17T13:03:42;32.30;1.00
6054;DHT22;3055;50.886;14.814;2023-08-17T13:06:09;32.60;1.00
6054;DHT22;3055;50.886;14.814;2023-08-17T13:08:36;32.50;1.00
6054;DHT22;3055;50.886;14.814;2023-08-17T13:11:03;32.60;1.00
6054;DHT22;3055;50.886;14.814;2023-08-17T13:13:30;32.40;1.00
6054;DHT22;3055;50.886;14.814;2023-08-17T13:15:57;32.40;1.00
6054;DHT22;3055;50.886;14.814;2023-08-17T13:18:25;32.80;1.00
6054;DHT22;3055;50.886;14.814;2023-08-17T13:20:54;33.20;1.00
6054;DHT22;3055;50.886;14.814;2023-08-17T13:23:21;33.30;1.00
6054;DHT22;3055;50.886;14.814;2023-08-17T13:25:48;32.90;1.00
6054;DHT22;3055;50.886;14.814;2023-08-17T13:28:15;33.20;1.00
6054;DHT22;3055;50.886;14.814;2023-08-17T13:30:42;33.70;1.00
6054;DHT22;3055;50.886;14.814;2023-08-17T13:33:09;33.70;1.00
6054;DHT22;3055;50.886;14.814;2023-08-17T13:35:38;33.70;1.00
6054;DHT22;3055;50.886;14.814;2023-08-17T13:38:05;33.70;1.00
6054;DHT22;3055;50.886;14.814;2023-08-17T13:40:32;34.20;1.00
6054;DHT22;3055;50.886;14.814;2023-08-17T13:43:02;34.80;1.00
6054;DHT22;3055;50.886;14.814;2023-08-17T13:45:29;35.10;1.00
6054;DHT22;3055;50.886;14.814;2023-08-17T13:47:56;35.30;1.00
6054;DHT22;3055;50.886;14.814;2023-08-17T13:50:23;35.60;1.00
6054;DHT22;3055;50.886;14.814;2023-08-17T13:52:51;36.10;1.00
6054;DHT22;3055;50.886;14.814;2023-08-17T13:55:18;36.50;1.00
6054;DHT22;3055;50.886;14.814;2023-08-17T13:57:45;36.10;1.00
6054;DHT22;3055;50.886;14.814;2023-08-17T14:00:13;35.50;1.00
6054;DHT22;3055;50.886;14.814;2023-08-17T14:02:40;35.20;1.00
6054;DHT22;3055;50.886;14.814;2023-08-17T14:05:08;35.30;1.00
6054;DHT22;3055;50.886;14.814;2023-08-17T14:07:35;35.60;1.00
6054;DHT22;3055;50.886;14.814;2023-08-17T14:10:03;35.60;1.00
6054;DHT22;3055;50.886;14.814;2023-08-17T14:12:31;36.00;1.00
6054;DHT22;3055;50.886;14.814;2023-08-17T14:14:59;35.70;1.00
6054;DHT22;3055;50.886;14.814;2023-08-17T14:17:26;35.80;1.00
6054;DHT22;3055;50.886;14.814;2023-08-17T14:19:53;36.30;1.00
6054;DHT22;3055;50.886;14.814;2023-08-17T14:22:21;36.90;1.00
6054;DHT22;3055;50.886;14.814;2023-08-17T14:24:48;37.20;1.00
6054;DHT22;3055;50.886;14.814;2023-08-17T14:27:16;37.20;1.00
6054;DHT22;3055;50.886;14.814;2023-08-17T14:29:43;36.90;1.00
6054;DHT22;3055;50.886;14.814;2023-08-17T14:32:10;37.00;1.00
6054;DHT22;3055;50.886;14.814;2023-08-17T14:34:38;37.30;1.00
6054;DHT22;3055;50.886;14.814;2023-08-17T14:37:05;37.70;1.00
6054;DHT22;3055;50.886;14.814;2023-08-17T14:39:32;38.30;1.00
6054;DHT22;3055;50.886;14.814;2023-08-17T14:41:59;38.60;1.00
6054;DHT22;3055;50.886;14.814;2023-08-17T14:44:27;39.20;1.00
6054;DHT22;3055;50.886;14.814;2023-08-17T14:46:54;39.40;1.00
6054;DHT22;3055;50.886;14.814;2023-08-17T14:49:21;39.00;1.00
6054;DHT22;3055;50.886;14.814;2023-08-17T14:51:48;39.00;1.00
6054;DHT22;3055;50.886;14.814;2023-08-17T14:54:16;39.20;1.00
6054;DHT22;3055;50.886;14.814;2023-08-17T14:56:43;39.40;1.00
6054;DHT22;3055;50.886;14.814;2023-08-17T14:59:10;39.80;1.00
6054;DHT22;3055;50.886;14.814;2023-08-17T15:01:38;39.60;1.00
6054;DHT22;3055;50.886;14.814;2023-08-17T15:04:05;39.10;1.00
6054;DHT22;3055;50.886;14.814;2023-08-17T15:06:32;39.20;1.00
6054;DHT22;3055;50.886;14.814;2023-08-17T15:08:59;38.60;1.00
6054;DHT22;3055;50.886;14.814;2023-08-17T15:11:28;37.20;1.00
6054;DHT22;3055;50.886;14.814;2023-08-17T15:13:55;36.40;1.00
6054;DHT22;3055;50.886;14.814;2023-08-17T15:16:22;36.40;1.00
6054;DHT22;3055;50.886;14.814;2023-08-17T15:18:54;36.90;1.00
6054;DHT22;3055;50.886;14.814;2023-08-17T15:21:22;37.90;1.00
6054;DHT22;3055;50.886;14.814;2023-08-17T15:23:49;37.70;1.00
6054;DHT22;3055;50.886;14.814;2023-08-17T15:26:16;37.00;1.00
6054;DHT22;3055;50.886;14.814;2023-08-17T15:28:43;36.80;1.00
6054;DHT22;3055;50.886;14.814;2023-08-17T15:31:10;37.00;1.00
6054;DHT22;3055;50.886;14.814;2023-08-17T15:33:38;36.80;1.00
6054;DHT22;3055;50.886;14.814;2023-08-17T15:36:07;36.20;1.00
6054;DHT22;3055;50.886;14.814;2023-08-17T15:38:34;36.10;1.00
6054;DHT22;3055;50.886;14.814;2023-08-17T15:41:01;35.60;1.00
6054;DHT22;3055;50.886;14.814;2023-08-17T15:43:29;34.70;1.00
6054;DHT22;3055;50.886;14.814;2023-08-17T15:45:56;33.60;1.00
6054;DHT22;3055;50.886;14.814;2023-08-17T15:48:24;32.60;1.00
6054;DHT22;3055;50.886;14.814;2023-08-17T15:50:52;32.10;1.00
6054;DHT22;3055;50.886;14.814;2023-08-17T15:53:20;31.30;1.00
6054;DHT22;3055;50.886;14.814;2023-08-17T15:55:48;31.00;1.00
6054;DHT22;3055;50.886;14.814;2023-08-17T15:58:15;30.90;1.00
6054;DHT22;3055;50.886;14.814;2023-08-17T16:00:42;30.90;1.00